sensor_id;sensor_type;location;lat;lon;timestamp;pressure;altitude;pressure_sealevel;temperature;humidity
61488;BME280;47351;53.326;-6.298;2024-03-17T00:00:38;100680.77;;;11.29;100.00
61488;BME280;47351;53.326;-6.298;2024-03-17T00:03:32;100683.14;;;11.27;100.00
61488;BME280;47351;53.326;-6.298;2024-03-17T00:06:25;100682.96;;;11.25;100.00
61488;BME280;47351;53.326;-6.298;2024-03-17T00:09:21;100677.70;;;11.21;100.00
61488;BME280;47351;53.326;-6.298;2024-03-17T00:12:16;100681.20;;;11.19;100.00
61488;BME280;47351;53.326;-6.298;2024-03-17T00:15:10;100679.73;;;11.17;100.00
61488;BME280;47351;53.326;-6.298;2024-03-17T00:18:09;100676.88;;;11.17;100.00
61488;BME280;47351;53.326;-6.298;2024-03-17T00:21:11;100676.55;;;11.19;100.00
61488;BME280;47351;53.326;-6.298;2024-03-17T00:24:15;100676.09;;;11.20;100.00
61488;BME280;47351;53.326;-6.298;2024-03-17T00:27:09;100671.61;;;11.20;100.00
61488;BME280;47351;53.326;-6.298;2024-03-17T00:30:09;100665.38;;;11.20;100.00
61488;BME280;47351;53.326;-6.298;2024-03-17T00:33:06;100669.44;;;11.18;100.00
61488;BME280;47351;53.326;-6.298;2024-03-17T00:36:18;100653.67;;;11.17;100.00
61488;BME280;47351;53.326;-6.298;2024-03-17T00:39:15;100647.36;;;11.17;100.00
61488;BME280;47351;53.326;-6.298;2024-03-17T00:42:10;100641.03;;;11.18;100.00
61488;BME280;47351;53.326;-6.298;2024-03-17T00:45:11;100640.33;;;11.18;100.00
61488;BME280;47351;53.326;-6.298;2024-03-17T00:48:09;100644.42;;;11.15;100.00
61488;BME280;47351;53.326;-6.298;2024-03-17T00:51:14;100654.62;;;11.11;100.00
61488;BME280;47351;53.326;-6.298;2024-03-17T00:54:09;100659.96;;;11.06;100.00
61488;BME280;47351;53.326;-6.298;2024-03-17T00:57:08;100657.27;;;11.01;100.00
61488;BME280;47351;53.326;-6.298;2024-03-17T01:00:22;100656.45;;;10.99;100.00
61488;BME280;47351;53.326;-6.298;2024-03-17T01:03:17;100655.73;;;10.99;100.00
61488;BME280;47351;53.326;-6.298;2024-03-17T01:06:22;100655.63;;;11.02;100.00
61488;BME280;47351;53.326;-6.298;2024-03-17T01:09:27;100654.27;;;11.04;100.00
61488;BME280;47351;53.326;-6.298;2024-03-17T01:12:19;100653.33;;;11.06;100.00
61488;BME280;47351;53.326;-6.298;2024-03-17T01:15:13;100654.66;;;11.06;100.00
61488;BME280;47351;53.326;-6.298;2024-03-17T01:18:11;100652.62;;;11.06;100.00
61488;BME280;47351;53.326;-6.298;2024-03-17T01:21:03;100647.09;;;11.06;100.00
61488;BME280;47351;53.326;-6.298;2024-03-17T01:24:03;100643.12;;;11.07;100.00
61488;BME280;47351;53.326;-6.298;2024-03-17T01:26:57;100639.33;;;11.08;100.00
61488;BME280;47351;53.326;-6.298;2024-03-17T01:29:55;100636.90;;;11.11;100.00
61488;BME280;47351;53.326;-6.298;2024-03-17T01:32:47;100630.45;;;11.13;100.00
61488;BME280;47351;53.326;-6.298;2024-03-17T01:35:50;100628.44;;;11.17;100.00
61488;BME280;47351;53.326;-6.298;2024-03-17T01:38:45;100623.85;;;11.19;100.00
61488;BME280;47351;53.326;-6.298;2024-03-17T01:41:38;100615.69;;;11.18;100.00
61488;BME280;47351;53.326;-6.298;2024-03-17T01:44:43;100616.95;;;11.16;100.00
61488;BME280;47351;53.326;-6.298;2024-03-17T01:47:42;100618.02;;;11.14;100.00
61488;BME280;47351;53.326;-6.298;2024-03-17T01:50:40;100610.02;;;11.12;100.00
61488;BME280;47351;53.326;-6.298;2024-03-17T01:53:36;100605.08;;;11.11;100.00
61488;BME280;47351;53.326;-6.298;2024-03-17T01:56:37;100602.01;;;11.09;100.00
61488;BME280;47351;53.326;-6.298;2024-03-17T01:59:44;100603.73;;;11.06;100.00
61488;BME280;47351;53.326;-6.298;2024-03-17T02:02:42;100604.63;;;11.03;100.00
61488;BME280;47351;53.326;-6.298;2024-03-17T02:05:40;100601.57;;;11.00;100.00
61488;BME280;47351;53.326;-6.298;2024-03-17T02:08:54;100598.83;;;10.95;100.00
61488;BME280;47351;53.326;-6.298;2024-03-17T02:12:07;100594.21;;;10.97;100.00
61488;BME280;47351;53.326;-6.298;2024-03-17T02:15:06;100589.02;;;10.98;100.00
61488;BME280;47351;53.326;-6.298;2024-03-17T02:17:58;100585.84;;;11.01;100.00
61488;BME280;47351;53.326;-6.298;2024-03-17T02:21:00;100588.02;;;11.01;100.00
61488;BME280;47351;53.326;-6.298;2024-03-17T02:23:54;100589.48;;;10.97;100.00
61488;BME280;47351;53.326;-6.298;2024-03-17T02:27:00;100588.97;;;10.92;100.00
61488;BME280;47351;53.326;-6.298;2024-03-17T02:29:58;100585.50;;;10.86;100.00
61488;BME280;47351;53.326;-6.298;2024-03-17T02:33:10;100579.33;;;10.79;100.00
61488;BME280;47351;53.326;-6.298;2024-03-17T02:36:08;100572.97;;;10.71;100.00
61488;BME280;47351;53.326;-6.298;2024-03-17T02:39:13;100573.20;;;10.65;100.00
61488;BME280;47351;53.326;-6.298;2024-03-17T02:42:42;100567.82;;;10.61;100.00
61488;BME280;47351;53.326;-6.298;2024-03-17T02:45:45;100567.82;;;10.59;100.00
61488;BME280;47351;53.326;-6.298;2024-03-17T02:48:47;100571.25;;;10.59;100.00
61488;BME280;47351;53.326;-6.298;2024-03-17T02:51:44;100568.13;;;10.58;100.00
61488;BME280;47351;53.326;-6.298;2024-03-17T02:54:56;100568.86;;;10.56;100.00
61488;BME280;47351;53.326;-6.298;2024-03-17T02:57:56;100570.14;;;10.56;100.00
61488;BME280;47351;53.326;-6.298;2024-03-17T03:00:53;100567.93;;;10.55;100.00
61488;BME280;47351;53.326;-6.298;2024-03-17T03:03:58;100562.67;;;10.55;100.00
61488;BME280;47351;53.326;-6.298;2024-03-17T03:06:53;100556.41;;;10.54;100.00
61488;BME280;47351;53.326;-6.298;2024-03-17T03:09:50;100556.82;;;10.52;100.00
61488;BME280;47351;53.326;-6.298;2024-03-17T03:12:56;100553.69;;;10.49;100.00
61488;BME280;47351;53.326;-6.298;2024-03-17T03:16:00;100557.89;;;10.47;100.00
61488;BME280;47351;53.326;-6.298;2024-03-17T03:18:55;100559.66;;;10.45;100.00
61488;BME280;47351;53.326;-6.298;2024-03-17T03:21:57;100563.27;;;10.45;100.00
61488;BME280;47351;53.326;-6.298;2024-03-17T03:25:02;100561.13;;;10.45;100.00
61488;BME280;47351;53.326;-6.298;2024-03-17T03:28:08;100555.59;;;10.47;100.00
61488;BME280;47351;53.326;-6.298;2024-03-17T03:31:05;100554.39;;;10.48;100.00
61488;BME280;47351;53.326;-6.298;2024-03-17T03:34:01;100551.07;;;10.49;100.00
61488;BME280;47351;53.326;-6.298;2024-03-17T03:36:53;100551.98;;;10.49;100.00
61488;BME280;47351;53.326;-6.298;2024-03-17T03:39:52;100556.66;;;10.48;100.00
61488;BME280;47351;53.326;-6.298;2024-03-17T03:42:53;100554.09;;;10.47;100.00
61488;BME280;47351;53.326;-6.298;2024-03-17T03:46:06;100555.88;;;10.45;100.00
61488;BME280;47351;53.326;-6.298;2024-03-17T03:49:11;100562.16;;;10.45;100.00
61488;BME280;47351;53.326;-6.298;2024-03-17T03:52:07;100562.02;;;10.47;100.00
61488;BME280;47351;53.326;-6.298;2024-03-17T03:55:11;100553.89;;;10.51;100.00
61488;BME280;47351;53.326;-6.298;2024-03-17T03:58:05;100555.21;;;10.55;100.00
61488;BME280;47351;53.326;-6.298;2024-03-17T04:01:16;100552.02;;;10.58;100.00
61488;BME280;47351;53.326;-6.298;2024-03-17T04:04:20;100549.88;;;10.60;100.00
61488;BME280;47351;53.326;-6.298;2024-03-17T04:07:15;100547.52;;;10.59;100.00
61488;BME280;47351;53.326;-6.298;2024-03-17T04:10:10;100545.69;;;10.57;100.00
61488;BME280;47351;53.326;-6.298;2024-03-17T04:13:10;100544.17;;;10.55;100.00
61488;BME280;47351;53.326;-6.298;2024-03-17T04:16:10;100538.54;;;10.51;100.00
61488;BME280;47351;53.326;-6.298;2024-03-17T04:19:23;100543.61;;;10.48;100.00
61488;BME280;47351;53.326;-6.298;2024-03-17T04:22:18;100548.48;;;10.50;100.00
61488;BME280;47351;53.326;-6.298;2024-03-17T04:25:18;100549.58;;;10.51;100.00
61488;BME280;47351;53.326;-6.298;2024-03-17T04:28:17;100548.89;;;10.53;100.00
61488;BME280;47351;53.326;-6.298;2024-03-17T04:31:12;100547.81;;;10.54;100.00
61488;BME280;47351;53.326;-6.298;2024-03-17T04:34:13;100551.95;;;10.56;100.00
61488;BME280;47351;53.326;-6.298;2024-03-17T04:37:14;100547.19;;;10.57;100.00
61488;BME280;47351;53.326;-6.298;2024-03-17T04:40:08;100542.10;;;10.58;100.00
61488;BME280;47351;53.326;-6.298;2024-03-17T04:43:01;100537.66;;;10.61;100.00
61488;BME280;47351;53.326;-6.298;2024-03-17T04:46:00;100538.98;;;10.65;100.00
61488;BME280;47351;53.326;-6.298;2024-03-17T04:48:54;100536.63;;;10.69;100.00
61488;BME280;47351;53.326;-6.298;2024-03-17T04:51:54;100534.17;;;10.72;100.00
61488;BME280;47351;53.326;-6.298;2024-03-17T04:54:50;100537.40;;;10.74;100.00
61488;BME280;47351;53.326;-6.298;2024-03-17T04:57:48;100539.11;;;10.74;100.00
61488;BME280;47351;53.326;-6.298;2024-03-17T05:00:42;100542.46;;;10.76;100.00
61488;BME280;47351;53.326;-6.298;2024-03-17T05:03:45;100541.27;;;10.79;100.00
61488;BME280;47351;53.326;-6.298;2024-03-17T05:06:42;100539.40;;;10.82;100.00
61488;BME280;47351;53.326;-6.298;2024-03-17T05:09:36;100532.14;;;10.84;100.00
61488;BME280;47351;53.326;-6.298;2024-03-17T05:12:28;100527.32;;;10.87;100.00
61488;BME280;47351;53.326;-6.298;2024-03-17T05:15:24;100523.71;;;10.91;100.00
61488;BME280;47351;53.326;-6.298;2024-03-17T05:18:21;100526.41;;;10.91;100.00
61488;BME280;47351;53.326;-6.298;2024-03-17T05:21:21;100524.95;;;10.90;100.00
61488;BME280;47351;53.326;-6.298;2024-03-17T05:24:14;100524.35;;;10.88;100.00
61488;BME280;47351;53.326;-6.298;2024-03-17T05:27:09;100518.19;;;10.88;100.00
61488;BME280;47351;53.326;-6.298;2024-03-17T05:30:04;100516.17;;;10.88;100.00
61488;BME280;47351;53.326;-6.298;2024-03-17T05:33:04;100515.94;;;10.89;100.00
61488;BME280;47351;53.326;-6.298;2024-03-17T05:36:16;100518.81;;;10.90;100.00
61488;BME280;47351;53.326;-6.298;2024-03-17T05:39:10;100517.08;;;10.90;100.00
61488;BME280;47351;53.326;-6.298;2024-03-17T05:42:17;100518.59;;;10.89;100.00
61488;BME280;47351;53.326;-6.298;2024-03-17T05:45:10;100515.17;;;10.87;100.00
61488;BME280;47351;53.326;-6.298;2024-03-17T05:48:08;100516.20;;;10.84;100.00
61488;BME280;47351;53.326;-6.298;2024-03-17T05:51:06;100518.27;;;10.84;100.00
61488;BME280;47351;53.326;-6.298;2024-03-17T05:54:09;100514.76;;;10.83;100.00
61488;BME280;47351;53.326;-6.298;2024-03-17T05:57:22;100515.98;;;10.87;100.00
61488;BME280;47351;53.326;-6.298;2024-03-17T06:00:20;100515.39;;;10.92;100.00
61488;BME280;47351;53.326;-6.298;2024-03-17T06:03:23;100514.15;;;10.97;100.00
61488;BME280;47351;53.326;-6.298;2024-03-17T06:06:22;100510.42;;;11.02;100.00
61488;BME280;47351;53.326;-6.298;2024-03-17T06:09:14;100506.09;;;11.04;99.95
61488;BME280;47351;53.326;-6.298;2024-03-17T06:12:09;100503.27;;;11.03;99.64
61488;BME280;47351;53.326;-6.298;2024-03-17T06:15:06;100506.04;;;11.02;99.62
61488;BME280;47351;53.326;-6.298;2024-03-17T06:17:58;100513.15;;;11.01;99.63
61488;BME280;47351;53.326;-6.298;2024-03-17T06:20:56;100507.67;;;10.99;99.41
61488;BME280;47351;53.326;-6.298;2024-03-17T06:23:49;100507.92;;;10.98;99.34
61488;BME280;47351;53.326;-6.298;2024-03-17T06:26:41;100508.09;;;10.99;99.35
61488;BME280;47351;53.326;-6.298;2024-03-17T06:29:36;100508.83;;;11.02;99.69
61488;BME280;47351;53.326;-6.298;2024-03-17T06:32:42;100507.29;;;11.04;99.60
61488;BME280;47351;53.326;-6.298;2024-03-17T06:35:39;100503.95;;;11.07;99.54
61488;BME280;47351;53.326;-6.298;2024-03-17T06:38:44;100503.41;;;11.07;99.30
61488;BME280;47351;53.326;-6.298;2024-03-17T06:41:47;100502.27;;;11.05;99.21
61488;BME280;47351;53.326;-6.298;2024-03-17T06:44:52;100507.70;;;11.01;99.19
61488;BME280;47351;53.326;-6.298;2024-03-17T06:48:05;100510.41;;;10.97;99.30
61488;BME280;47351;53.326;-6.298;2024-03-17T06:50:57;100511.13;;;10.96;99.49
61488;BME280;47351;53.326;-6.298;2024-03-17T06:54:00;100505.65;;;10.95;99.71
61488;BME280;47351;53.326;-6.298;2024-03-17T06:57:02;100500.99;;;10.95;99.84
61488;BME280;47351;53.326;-6.298;2024-03-17T06:59:54;100498.11;;;10.95;99.90
61488;BME280;47351;53.326;-6.298;2024-03-17T07:02:49;100495.66;;;10.96;99.97
61488;BME280;47351;53.326;-6.298;2024-03-17T07:05:50;100499.45;;;10.98;99.99
61488;BME280;47351;53.326;-6.298;2024-03-17T07:08:45;100494.06;;;10.98;100.00
61488;BME280;47351;53.326;-6.298;2024-03-17T07:11:42;100493.67;;;11.00;100.00
61488;BME280;47351;53.326;-6.298;2024-03-17T07:14:40;100488.87;;;11.03;99.99
61488;BME280;47351;53.326;-6.298;2024-03-17T07:17:42;100482.65;;;11.09;100.00
61488;BME280;47351;53.326;-6.298;2024-03-17T07:20:39;100486.94;;;11.19;100.00
61488;BME280;47351;53.326;-6.298;2024-03-17T07:23:36;100487.58;;;11.30;99.95
61488;BME280;47351;53.326;-6.298;2024-03-17T07:26:41;100490.08;;;11.43;100.00
61488;BME280;47351;53.326;-6.298;2024-03-17T07:29:46;100491.13;;;11.77;100.00
61488;BME280;47351;53.326;-6.298;2024-03-17T07:32:41;100488.41;;;12.88;99.99
61488;BME280;47351;53.326;-6.298;2024-03-17T07:35:33;100488.77;;;14.00;99.41
61488;BME280;47351;53.326;-6.298;2024-03-17T07:38:25;100477.80;;;15.03;97.25
61488;BME280;47351;53.326;-6.298;2024-03-17T07:41:18;100478.41;;;15.09;94.24
61488;BME280;47351;53.326;-6.298;2024-03-17T07:44:10;100475.14;;;14.81;91.45
61488;BME280;47351;53.326;-6.298;2024-03-17T07:47:03;100469.83;;;14.72;89.99
61488;BME280;47351;53.326;-6.298;2024-03-17T07:49:59;100471.20;;;14.41;89.91
61488;BME280;47351;53.326;-6.298;2024-03-17T07:52:56;100473.66;;;14.17;89.85
61488;BME280;47351;53.326;-6.298;2024-03-17T07:55:59;100469.80;;;14.00;89.87
61488;BME280;47351;53.326;-6.298;2024-03-17T07:58:51;100470.38;;;13.88;89.68
61488;BME280;47351;53.326;-6.298;2024-03-17T08:01:43;100471.14;;;13.77;89.71
61488;BME280;47351;53.326;-6.298;2024-03-17T08:04:38;100466.11;;;13.68;89.95
61488;BME280;47351;53.326;-6.298;2024-03-17T08:07:33;100462.80;;;13.64;90.24
61488;BME280;47351;53.326;-6.298;2024-03-17T08:10:25;100462.13;;;13.73;90.72
61488;BME280;47351;53.326;-6.298;2024-03-17T08:13:18;100461.25;;;13.82;89.16
61488;BME280;47351;53.326;-6.298;2024-03-17T08:16:10;100457.33;;;13.97;88.52
61488;BME280;47351;53.326;-6.298;2024-03-17T08:19:02;100450.13;;;14.13;86.97
61488;BME280;47351;53.326;-6.298;2024-03-17T08:21:54;100451.42;;;14.60;85.81
61488;BME280;47351;53.326;-6.298;2024-03-17T08:24:47;100463.54;;;15.07;85.06
61488;BME280;47351;53.326;-6.298;2024-03-17T08:27:39;100465.70;;;15.33;84.33
61488;BME280;47351;53.326;-6.298;2024-03-17T08:30:31;100465.91;;;15.79;83.86
61488;BME280;47351;53.326;-6.298;2024-03-17T08:33:23;100466.25;;;17.02;83.56
61488;BME280;47351;53.326;-6.298;2024-03-17T08:36:18;100461.26;;;19.29;81.26
61488;BME280;47351;53.326;-6.298;2024-03-17T08:39:12;100458.72;;;21.47;78.12
61488;BME280;47351;53.326;-6.298;2024-03-17T08:42:04;100458.66;;;22.09;75.54
61488;BME280;47351;53.326;-6.298;2024-03-17T08:44:56;100458.17;;;21.33;74.70
61488;BME280;47351;53.326;-6.298;2024-03-17T08:47:53;100457.13;;;20.34;73.77
61488;BME280;47351;53.326;-6.298;2024-03-17T08:50:51;100462.14;;;19.42;73.19
61488;BME280;47351;53.326;-6.298;2024-03-17T08:53:43;100461.17;;;18.57;73.14
61488;BME280;47351;53.326;-6.298;2024-03-17T08:56:39;100465.22;;;17.83;73.49
61488;BME280;47351;53.326;-6.298;2024-03-17T08:59:31;100464.06;;;17.24;73.89
61488;BME280;47351;53.326;-6.298;2024-03-17T09:02:23;100459.15;;;16.84;73.97
61488;BME280;47351;53.326;-6.298;2024-03-17T09:05:15;100460.89;;;16.45;74.49
61488;BME280;47351;53.326;-6.298;2024-03-17T09:08:07;100461.02;;;16.11;75.27
61488;BME280;47351;53.326;-6.298;2024-03-17T09:11:00;100461.73;;;15.85;75.96
61488;BME280;47351;53.326;-6.298;2024-03-17T09:13:52;100460.21;;;15.73;76.65
61488;BME280;47351;53.326;-6.298;2024-03-17T09:16:47;100463.39;;;15.69;77.09
61488;BME280;47351;53.326;-6.298;2024-03-17T09:19:39;100461.59;;;15.52;77.03
61488;BME280;47351;53.326;-6.298;2024-03-17T09:22:31;100459.67;;;15.31;77.62
61488;BME280;47351;53.326;-6.298;2024-03-17T09:25:23;100464.52;;;15.20;78.25
61488;BME280;47351;53.326;-6.298;2024-03-17T09:28:15;100464.34;;;15.08;78.28
61488;BME280;47351;53.326;-6.298;2024-03-17T09:31:07;100457.27;;;14.95;78.48
61488;BME280;47351;53.326;-6.298;2024-03-17T09:33:59;100453.66;;;14.90;79.05
61488;BME280;47351;53.326;-6.298;2024-03-17T09:36:51;100458.28;;;14.97;79.48
61488;BME280;47351;53.326;-6.298;2024-03-17T09:39:46;100455.23;;;16.68;77.21
61488;BME280;47351;53.326;-6.298;2024-03-17T09:42:42;100438.42;;;19.78;73.19
61488;BME280;47351;53.326;-6.298;2024-03-17T09:45:34;100422.61;;;22.93;67.42
61488;BME280;47351;53.326;-6.298;2024-03-17T09:48:28;100414.55;;;25.50;62.30
61488;BME280;47351;53.326;-6.298;2024-03-17T09:51:22;100421.27;;;26.75;56.86
61488;BME280;47351;53.326;-6.298;2024-03-17T09:54:18;100421.24;;;25.74;54.36
61488;BME280;47351;53.326;-6.298;2024-03-17T09:57:16;100419.10;;;25.69;52.95
61488;BME280;47351;53.326;-6.298;2024-03-17T10:00:13;100417.13;;;27.29;50.55
61488;BME280;47351;53.326;-6.298;2024-03-17T10:03:05;100412.95;;;28.87;47.00
61488;BME280;47351;53.326;-6.298;2024-03-17T10:06:01;100411.39;;;30.08;44.89
61488;BME280;47351;53.326;-6.298;2024-03-17T10:08:55;100401.36;;;31.58;44.73
61488;BME280;47351;53.326;-6.298;2024-03-17T10:11:47;100396.52;;;32.75;42.33
61488;BME280;47351;53.326;-6.298;2024-03-17T10:14:40;100391.87;;;33.09;39.94
61488;BME280;47351;53.326;-6.298;2024-03-17T10:17:33;100384.14;;;32.74;38.46
61488;BME280;47351;53.326;-6.298;2024-03-17T10:20:28;100383.52;;;32.24;36.97
61488;BME280;47351;53.326;-6.298;2024-03-17T10:23:20;100387.05;;;31.96;36.00
61488;BME280;47351;53.326;-6.298;2024-03-17T10:26:14;100381.95;;;31.65;35.63
61488;BME280;47351;53.326;-6.298;2024-03-17T10:29:06;100386.80;;;30.85;36.21
61488;BME280;47351;53.326;-6.298;2024-03-17T10:32:15;100380.65;;;31.22;35.88
61488;BME280;47351;53.326;-6.298;2024-03-17T10:35:29;100384.33;;;31.08;35.45
61488;BME280;47351;53.326;-6.298;2024-03-17T10:38:22;100385.64;;;30.40;35.58
61488;BME280;47351;53.326;-6.298;2024-03-17T10:41:14;100377.55;;;29.12;34.37
61488;BME280;47351;53.326;-6.298;2024-03-17T10:44:08;100380.21;;;27.10;35.38
61488;BME280;47351;53.326;-6.298;2024-03-17T10:47:01;100382.27;;;25.14;36.75
61488;BME280;47351;53.326;-6.298;2024-03-17T10:49:55;100385.12;;;24.09;39.10
61488;BME280;47351;53.326;-6.298;2024-03-17T10:52:48;100386.63;;;23.69;39.74
61488;BME280;47351;53.326;-6.298;2024-03-17T10:55:44;100390.11;;;23.73;40.08
61488;BME280;47351;53.326;-6.298;2024-03-17T10:58:38;100386.30;;;25.38;37.66
61488;BME280;47351;53.326;-6.298;2024-03-17T11:01:32;100384.50;;;26.73;35.88
61488;BME280;47351;53.326;-6.298;2024-03-17T11:04:24;100381.70;;;28.23;34.85
61488;BME280;47351;53.326;-6.298;2024-03-17T11:07:17;100384.06;;;28.54;34.42
61488;BME280;47351;53.326;-6.298;2024-03-17T11:10:10;100390.52;;;26.58;35.56
61488;BME280;47351;53.326;-6.298;2024-03-17T11:13:06;100393.06;;;24.43;37.40
61488;BME280;47351;53.326;-6.298;2024-03-17T11:16:27;100400.50;;;22.40;40.39
61488;BME280;47351;53.326;-6.298;2024-03-17T11:19:19;100406.52;;;21.02;43.40
61488;BME280;47351;53.326;-6.298;2024-03-17T11:22:42;100409.81;;;20.06;45.55
61488;BME280;47351;53.326;-6.298;2024-03-17T11:25:41;100409.70;;;19.18;47.94
61488;BME280;47351;53.326;-6.298;2024-03-17T11:28:50;100410.83;;;18.73;49.83
61488;BME280;47351;53.326;-6.298;2024-03-17T11:31:43;100413.20;;;18.19;51.57
61488;BME280;47351;53.326;-6.298;2024-03-17T11:34:39;100423.10;;;17.91;52.90
61488;BME280;47351;53.326;-6.298;2024-03-17T11:37:43;100433.33;;;17.59;54.23
61488;BME280;47351;53.326;-6.298;2024-03-17T11:40:36;100434.73;;;17.22;55.68
61488;BME280;47351;53.326;-6.298;2024-03-17T11:43:27;100437.04;;;16.93;57.06
61488;BME280;47351;53.326;-6.298;2024-03-17T11:46:19;100430.66;;;16.83;57.96
61488;BME280;47351;53.326;-6.298;2024-03-17T11:49:19;100429.52;;;16.78;58.85
61488;BME280;47351;53.326;-6.298;2024-03-17T11:52:13;100430.36;;;16.70;59.70
61488;BME280;47351;53.326;-6.298;2024-03-17T11:55:06;100423.70;;;16.66;60.51
61488;BME280;47351;53.326;-6.298;2024-03-17T11:58:06;100422.67;;;16.83;61.02
61488;BME280;47351;53.326;-6.298;2024-03-17T12:01:05;100424.20;;;17.15;60.95
61488;BME280;47351;53.326;-6.298;2024-03-17T12:03:57;100425.34;;;17.45;60.53
61488;BME280;47351;53.326;-6.298;2024-03-17T12:06:56;100416.30;;;18.30;58.74
61488;BME280;47351;53.326;-6.298;2024-03-17T12:09:49;100410.30;;;18.96;56.50
61488;BME280;47351;53.326;-6.298;2024-03-17T12:12:41;100415.94;;;19.11;55.46
61488;BME280;47351;53.326;-6.298;2024-03-17T12:15:38;100403.77;;;20.51;52.91
61488;BME280;47351;53.326;-6.298;2024-03-17T12:18:31;100400.40;;;22.60;49.46
61488;BME280;47351;53.326;-6.298;2024-03-17T12:21:25;100395.49;;;24.58;45.38
61488;BME280;47351;53.326;-6.298;2024-03-17T12:24:18;100396.20;;;24.96;44.22
61488;BME280;47351;53.326;-6.298;2024-03-17T12:27:19;100395.42;;;24.56;44.04
61488;BME280;47351;53.326;-6.298;2024-03-17T12:30:13;100397.95;;;23.28;45.36
61488;BME280;47351;53.326;-6.298;2024-03-17T12:33:05;100404.73;;;22.13;46.78
61488;BME280;47351;53.326;-6.298;2024-03-17T12:36:00;100403.14;;;21.22;47.91
61488;BME280;47351;53.326;-6.298;2024-03-17T12:38:54;100403.92;;;20.47;49.47
61488;BME280;47351;53.326;-6.298;2024-03-17T12:41:54;100403.52;;;19.75;50.87
61488;BME280;47351;53.326;-6.298;2024-03-17T12:44:53;100402.03;;;19.07;52.75
61488;BME280;47351;53.326;-6.298;2024-03-17T12:47:48;100405.39;;;18.45;54.50
61488;BME280;47351;53.326;-6.298;2024-03-17T12:50:46;100408.92;;;17.86;56.18
61488;BME280;47351;53.326;-6.298;2024-03-17T12:53:38;100411.81;;;17.39;58.13
61488;BME280;47351;53.326;-6.298;2024-03-17T12:56:30;100412.36;;;17.29;59.31
61488;BME280;47351;53.326;-6.298;2024-03-17T12:59:40;100412.16;;;17.17;60.60
61488;BME280;47351;53.326;-6.298;2024-03-17T13:02:59;100413.62;;;17.05;61.50
61488;BME280;47351;53.326;-6.298;2024-03-17T13:05:51;100421.52;;;17.09;61.54
61488;BME280;47351;53.326;-6.298;2024-03-17T13:08:43;100422.17;;;16.90;61.41
61488;BME280;47351;53.326;-6.298;2024-03-17T13:11:34;100422.55;;;16.72;61.63
61488;BME280;47351;53.326;-6.298;2024-03-17T13:14:26;100422.54;;;16.69;61.69
61488;BME280;47351;53.326;-6.298;2024-03-17T13:17:18;100433.06;;;16.54;62.09
61488;BME280;47351;53.326;-6.298;2024-03-17T13:20:14;100429.95;;;16.37;62.83
61488;BME280;47351;53.326;-6.298;2024-03-17T13:23:06;100432.52;;;16.36;63.34
61488;BME280;47351;53.326;-6.298;2024-03-17T13:25:59;100438.58;;;16.14;63.47
61488;BME280;47351;53.326;-6.298;2024-03-17T13:28:52;100441.44;;;15.88;63.93
61488;BME280;47351;53.326;-6.298;2024-03-17T13:31:44;100438.25;;;15.63;64.46
61488;BME280;47351;53.326;-6.298;2024-03-17T13:34:37;100436.02;;;15.60;65.28
61488;BME280;47351;53.326;-6.298;2024-03-17T13:37:28;100438.27;;;15.62;65.47
61488;BME280;47351;53.326;-6.298;2024-03-17T13:40:20;100432.19;;;15.57;66.01
61488;BME280;47351;53.326;-6.298;2024-03-17T13:43:13;100440.98;;;15.45;66.78
61488;BME280;47351;53.326;-6.298;2024-03-17T13:46:05;100438.36;;;15.33;67.03
61488;BME280;47351;53.326;-6.298;2024-03-17T13:49:06;100438.64;;;15.25;67.73
61488;BME280;47351;53.326;-6.298;2024-03-17T13:51:58;100441.02;;;15.22;67.66
61488;BME280;47351;53.326;-6.298;2024-03-17T13:54:50;100451.39;;;15.18;66.80
61488;BME280;47351;53.326;-6.298;2024-03-17T13:57:44;100460.33;;;15.14;66.79
61488;BME280;47351;53.326;-6.298;2024-03-17T14:00:36;100462.80;;;15.12;67.03
61488;BME280;47351;53.326;-6.298;2024-03-17T14:03:29;100467.09;;;15.09;67.31
61488;BME280;47351;53.326;-6.298;2024-03-17T14:06:23;100468.14;;;14.89;67.58
61488;BME280;47351;53.326;-6.298;2024-03-17T14:09:16;100475.91;;;14.57;68.36
61488;BME280;47351;53.326;-6.298;2024-03-17T14:12:09;100479.41;;;14.27;69.28
61488;BME280;47351;53.326;-6.298;2024-03-17T14:15:01;100488.84;;;14.12;69.80
61488;BME280;47351;53.326;-6.298;2024-03-17T14:17:53;100493.02;;;14.00;70.42
61488;BME280;47351;53.326;-6.298;2024-03-17T14:20:45;100493.95;;;13.89;70.78
61488;BME280;47351;53.326;-6.298;2024-03-17T14:23:37;100492.49;;;13.89;70.79
61488;BME280;47351;53.326;-6.298;2024-03-17T14:26:29;100487.77;;;13.95;70.55
61488;BME280;47351;53.326;-6.298;2024-03-17T14:29:21;100483.43;;;14.16;70.16
61488;BME280;47351;53.326;-6.298;2024-03-17T14:32:12;100477.52;;;14.40;69.16
61488;BME280;47351;53.326;-6.298;2024-03-17T14:35:06;100482.30;;;14.58;68.44
61488;BME280;47351;53.326;-6.298;2024-03-17T14:38:01;100477.50;;;14.46;67.76
61488;BME280;47351;53.326;-6.298;2024-03-17T14:40:55;100480.33;;;14.27;68.08
61488;BME280;47351;53.326;-6.298;2024-03-17T14:43:47;100485.70;;;14.19;68.47
61488;BME280;47351;53.326;-6.298;2024-03-17T14:46:45;100479.38;;;14.26;68.39
61488;BME280;47351;53.326;-6.298;2024-03-17T14:49:40;100478.83;;;14.32;68.08
61488;BME280;47351;53.326;-6.298;2024-03-17T14:52:32;100477.27;;;14.40;68.04
61488;BME280;47351;53.326;-6.298;2024-03-17T14:55:25;100482.69;;;14.32;68.08
61488;BME280;47351;53.326;-6.298;2024-03-17T14:58:17;100486.76;;;14.17;67.59
61488;BME280;47351;53.326;-6.298;2024-03-17T15:01:13;100489.39;;;14.16;68.02
61488;BME280;47351;53.326;-6.298;2024-03-17T15:04:05;100492.59;;;14.35;67.42
61488;BME280;47351;53.326;-6.298;2024-03-17T15:06:57;100491.02;;;14.73;65.95